Time;durP1;ratioP1;P1;durP2;ratioP2;P2;SDS_P1;SDS_P2;PMS_P1;PMS_P2;Temp;Humidity;BMP_temperature;BMP_pressure;BME280_temperature;BME280_humidity;BME280_pressure;Samples;Min_cycle;Max_cycle;Signal;HPM_P1;HPM_P2
2023/10/15 00:00:35;;;;;;;4.77;2.00;;;;;;;11.02;66.85;99724.16;5025186;28;20302;-62
2023/10/15 00:03:06;;;;;;;6.47;2.37;;;;;;;10.97;67.33;99719.94;5033981;28;20620;-62
2023/10/15 00:05:36;;;;;;;4.33;2.17;;;;;;;10.97;67.53;99728.56;5028583;28;20202;-63
2023/10/15 00:08:04;;;;;;;5.07;2.17;;;;;;;10.98;67.60;99731.97;5028574;28;20221;-62
2023/10/15 00:10:34;;;;;;;7.03;2.50;;;;;;;10.97;67.83;99725.09;5031559;28;20212;-61
2023/10/15 00:13:04;;;;;;;7.00;2.47;;;;;;;10.90;68.00;99732.13;5029843;28;20198;-62
2023/10/15 00:15:33;;;;;;;5.37;2.10;;;;;;;10.91;68.43;99727.81;5029884;28;20634;-62
2023/10/15 00:18:02;;;;;;;7.53;2.50;;;;;;;10.88;68.19;99719.25;5026935;28;20210;-62
2023/10/15 00:20:34;;;;;;;5.73;2.47;;;;;;;10.77;68.48;99715.16;5033839;28;20556;-62
2023/10/15 00:23:05;;;;;;;5.77;2.20;;;;;;;10.74;68.71;99726.38;5033086;28;20223;-62
2023/10/15 00:25:35;;;;;;;5.40;2.20;;;;;;;10.76;68.61;99718.63;5022479;28;20553;-63
2023/10/15 00:28:09;;;;;;;4.67;2.00;;;;;;;10.74;67.91;99726.38;5031520;28;20660;-62
2023/10/15 00:30:41;;;;;;;5.07;2.10;;;;;;;10.71;67.82;99728.16;5029952;28;20243;-63
2023/10/15 00:33:11;;;;;;;5.40;2.10;;;;;;;10.69;67.79;99735.91;5034056;28;20706;-64
2023/10/15 00:35:44;;;;;;;4.43;2.00;;;;;;;10.66;67.53;99738.53;5030664;28;20195;-62
2023/10/15 00:38:16;;;;;;;6.93;2.00;;;;;;;10.66;67.49;99737.69;5030642;28;20720;-64
2023/10/15 00:40:46;;;;;;;5.70;2.30;;;;;;;10.66;67.44;99738.53;5032620;28;20203;-61
2023/10/15 00:43:17;;;;;;;4.93;2.37;;;;;;;10.55;67.36;99740.44;5034151;28;20761;-62
2023/10/15 00:45:47;;;;;;;3.93;1.83;;;;;;;10.53;67.32;99743.06;5031724;28;20626;-63
2023/10/15 00:48:24;;;;;;;2.77;1.40;;;;;;;10.41;67.01;99743.22;5033705;28;20241;-62
2023/10/15 00:50:55;;;;;;;6.30;2.10;;;;;;;10.41;67.29;99743.22;5029102;28;20208;-63
2023/10/15 00:53:27;;;;;;;3.50;1.40;;;;;;;10.39;67.10;99750.16;5032713;28;20290;-62
2023/10/15 00:56:01;;;;;;;7.50;2.13;;;;;;;10.35;66.81;99751.91;5030598;28;20295;-66
2023/10/15 00:58:38;;;;;;;7.43;1.63;;;;;;;10.24;66.69;99746.06;5035000;28;20739;-69
2023/10/15 01:03:56;;;;;;;3.47;1.67;;;;;;;10.19;67.28;99752.97;5031072;28;21660;-67
2023/10/15 01:06:35;;;;;;;5.50;1.90;;;;;;;10.15;66.80;99756.47;5032235;28;20291;-69
2023/10/15 01:09:09;;;;;;;2.07;1.30;;;;;;;10.16;67.17;99759.03;5033527;28;20306;-67
2023/10/15 01:11:43;;;;;;;4.70;1.90;;;;;;;10.13;66.89;99753.09;5032127;28;20284;-65
2023/10/15 01:14:14;;;;;;;4.67;2.00;;;;;;;10.08;67.59;99750.56;5033489;28;20210;-67
2023/10/15 01:16:43;;;;;;;5.47;1.73;;;;;;;10.08;67.36;99752.28;5029445;28;20209;-67
2023/10/15 01:19:17;;;;;;;8.93;2.23;;;;;;;10.06;67.32;99756.63;5031787;28;20234;-67
2023/10/15 01:21:51;;;;;;;1.87;1.40;;;;;;;10.05;67.48;99760.91;5030558;28;20202;-67
2023/10/15 01:24:20;;;;;;;8.10;2.33;;;;;;;9.98;67.33;99761.88;5032667;28;20222;-68
2023/10/15 01:26:59;;;;;;;3.87;1.90;;;;;;;9.88;67.95;99756.00;5033032;28;20206;-67
2023/10/15 01:29:28;;;;;;;4.27;1.80;;;;;;;9.85;68.34;99768.03;5028829;28;20203;-68
2023/10/15 01:31:58;;;;;;;4.97;1.87;;;;;;;9.78;68.95;99767.25;5024440;28;20205;-67
2023/10/15 01:34:27;;;;;;;4.03;2.03;;;;;;;9.67;69.63;99766.56;5029924;28;20194;-68
2023/10/15 01:36:57;;;;;;;5.57;1.60;;;;;;;9.66;69.14;99772.56;5035216;28;20211;-67
2023/10/15 01:39:37;;;;;;;5.13;2.10;;;;;;;9.55;69.59;99764.13;5032460;28;20306;-67
2023/10/15 01:42:07;;;;;;;4.87;1.77;;;;;;;9.53;69.73;99769.28;5033126;28;20688;-67
2023/10/15 01:44:39;;;;;;;8.03;2.10;;;;;;;9.55;69.92;99772.69;5032067;28;20280;-68
2023/10/15 01:47:12;;;;;;;6.17;1.50;;;;;;;9.55;69.70;99772.69;5033272;28;20225;-68
2023/10/15 01:49:41;;;;;;;7.57;1.80;;;;;;;9.50;69.78;99766.78;5030907;28;20618;-67
2023/10/15 01:52:10;;;;;;;4.83;2.07;;;;;;;9.47;69.99;99765.97;5032146;28;20207;-68
2023/10/15 01:54:38;;;;;;;3.60;1.80;;;;;;;9.41;70.83;99765.13;5028562;28;20202;-67
2023/10/15 01:57:07;;;;;;;4.50;1.27;;;;;;;9.31;71.02;99762.69;5032183;28;20636;-67
2023/10/15 01:59:45;;;;;;;5.53;1.87;;;;;;;9.29;71.07;99761.88;5034659;28;20202;-69
2023/10/15 02:02:14;;;;;;;6.30;1.70;;;;;;;9.25;71.08;99763.63;5029578;28;20654;-69
2023/10/15 02:04:44;;;;;;;5.03;1.70;;;;;;;9.23;71.21;99767.06;5032089;28;20300;-68
2023/10/15 02:07:16;;;;;;;3.77;1.53;;;;;;;9.19;71.07;99761.09;5033137;28;20205;-68
2023/10/15 02:09:44;;;;;;;3.57;1.40;;;;;;;9.21;71.44;99763.66;5021969;28;20230;-67
2023/10/15 02:12:17;;;;;;;10.00;1.73;;;;;;;9.19;70.99;99761.09;5030144;28;20202;-65
2023/10/15 02:14:47;;;;;;;4.97;2.03;;;;;;;9.16;70.88;99761.97;5031588;28;20730;-66
2023/10/15 02:17:18;;;;;;;3.23;1.30;;;;;;;9.15;70.84;99765.41;5031396;28;20703;-60
2023/10/15 02:19:47;;;;;;;5.70;1.83;;;;;;;9.14;70.99;99773.16;5032655;28;20234;-63
2023/10/15 02:22:16;;;;;;;8.90;2.17;;;;;;;9.09;71.25;99765.47;5031195;28;20213;-60
2023/10/15 02:24:47;;;;;;;2.53;1.50;;;;;;;9.03;71.16;99770.69;5028867;28;20226;-62
2023/10/15 02:27:23;;;;;;;3.33;1.50;;;;;;;9.07;71.08;99772.38;5024389;28;20293;-62
2023/10/15 02:29:51;;;;;;;5.67;1.77;;;;;;;9.07;71.54;99761.25;5043844;28;20210;-63
2023/10/15 02:32:30;;;;;;;2.60;1.43;;;;;;;9.06;71.14;99760.38;5027762;28;20203;-63
2023/10/15 02:34:59;;;;;;;4.00;1.63;;;;;;;9.03;71.58;99769.84;5028435;28;20561;-66
2023/10/15 02:37:27;;;;;;;2.70;1.30;;;;;;;9.01;71.24;99766.44;5027885;28;20199;-62
2023/10/15 02:39:58;;;;;;;1.60;1.30;;;;;;;8.91;71.42;99776.81;5031383;28;20235;-61
2023/10/15 02:42:35;;;;;;;4.40;1.40;;;;;;;8.94;72.00;99776.75;5027444;28;20256;-61
2023/10/15 02:45:06;;;;;;;3.43;1.63;;;;;;;8.91;72.40;99776.81;5029448;28;20210;-62
2023/10/15 02:47:41;;;;;;;3.60;1.50;;;;;;;8.95;71.74;99775.06;5030577;28;20248;-64
2023/10/15 02:50:16;;;;;;;2.07;1.30;;;;;;;8.91;71.77;99770.78;5031667;28;20611;-62
2023/10/15 02:52:45;;;;;;;2.33;1.40;;;;;;;8.93;71.87;99777.63;5026266;28;20202;-61
2023/10/15 02:55:26;;;;;;;6.77;1.60;;;;;;;8.94;71.23;99775.91;5032063;28;20285;-61
2023/10/15 02:58:02;;;;;;;6.13;2.33;;;;;;;8.97;71.48;99781.03;5028132;28;20831;-62
2023/10/15 03:00:32;;;;;;;3.10;1.70;;;;;;;8.98;71.33;99772.44;5030858;28;20252;-61
2023/10/15 03:03:06;;;;;;;3.23;1.77;;;;;;;8.94;70.23;99765.63;5025709;28;20196;-61
2023/10/15 03:05:40;;;;;;;6.73;1.43;;;;;;;8.85;71.10;99765.72;5023745;28;20688;-62
2023/10/15 03:08:09;;;;;;;2.90;1.40;;;;;;;8.80;71.21;99763.22;5027072;28;20580;-62
2023/10/15 03:10:47;;;;;;;6.53;1.30;;;;;;;8.79;71.13;99760.63;5032439;28;20209;-61
2023/10/15 03:13:18;;;;;;;2.67;1.20;;;;;;;8.81;71.61;99764.06;5025590;28;20198;-61
2023/10/15 03:15:48;;;;;;;2.93;1.47;;;;;;;8.74;70.97;99760.69;5027996;28;20293;-63
2023/10/15 03:18:22;;;;;;;5.20;1.57;;;;;;;8.69;71.47;99767.59;5030287;28;20211;-63
2023/10/15 03:20:51;;;;;;;3.47;1.30;;;;;;;8.66;71.74;99773.59;5029079;28;20242;-65
2023/10/15 03:23:21;;;;;;;7.30;1.70;;;;;;;8.65;71.43;99773.59;5029522;28;20210;-62
2023/10/15 03:25:57;;;;;;;4.23;1.53;;;;;;;8.61;72.01;99777.91;5030171;28;20272;-63
2023/10/15 03:28:26;;;;;;;2.33;1.30;;;;;;;8.59;71.65;99764.22;5029641;28;20205;-62
2023/10/15 03:30:56;;;;;;;4.30;1.60;;;;;;;8.50;72.04;99783.97;5030092;28;20345;-62
2023/10/15 03:33:29;;;;;;;5.30;1.80;;;;;;;8.45;72.93;99766.91;5027335;28;20210;-62
2023/10/15 03:36:00;;;;;;;3.90;1.50;;;;;;;8.45;72.95;99766.91;5031285;28;20627;-62
2023/10/15 03:38:34;;;;;;;3.43;1.67;;;;;;;8.48;72.40;99765.19;5027458;28;20256;-62
2023/10/15 03:41:11;;;;;;;6.03;1.60;;;;;;;8.42;73.02;99772.06;5022152;28;20229;-62
2023/10/15 03:43:40;;;;;;;2.67;1.20;;;;;;;8.30;73.75;99776.41;5028664;28;20198;-62
2023/10/15 03:46:17;;;;;;;5.50;1.60;;;;;;;8.27;73.87;99781.53;5031010;28;20214;-63
2023/10/15 03:48:49;;;;;;;2.80;1.50;;;;;;;8.29;73.46;99780.69;5025749;28;20252;-61
2023/10/15 03:51:21;;;;;;;2.87;1.70;;;;;;;8.25;73.38;99786.69;5031143;28;20536;-61
2023/10/15 03:53:50;;;;;;;4.73;1.57;;;;;;;8.27;74.12;99787.53;5031821;28;20211;-65
2023/10/15 03:56:19;;;;;;;8.37;2.47;;;;;;;8.33;74.24;99796.91;5040364;28;20203;-61
2023/10/15 03:58:51;;;;;;;5.03;1.30;;;;;;;8.36;74.14;99791.78;5025797;28;20202;-61
2023/10/15 04:01:21;;;;;;;6.00;1.40;;;;;;;8.38;73.42;99790.91;5031301;28;20230;-63
2023/10/15 04:03:50;;;;;;;5.23;1.33;;;;;;;8.38;73.03;99785.78;5030267;28;20202;-62
2023/10/15 04:06:20;;;;;;;6.57;2.10;;;;;;;8.37;72.74;99783.19;5028378;28;20253;-62
2023/10/15 04:11:31;;;;;;;4.90;1.80;;;;;;;8.40;73.21;99778.94;5021468;28;20301;-62
2023/10/15 04:14:11;;;;;;;4.90;1.77;;;;;;;8.40;72.81;99772.94;5027600;28;20253;-61
2023/10/15 04:16:40;;;;;;;9.13;1.90;;;;;;;8.31;73.27;99778.94;5029893;28;20562;-64
2023/10/15 04:19:08;;;;;;;6.13;2.00;;;;;;;8.33;72.70;99784.09;5030532;28;20684;-62
2023/10/15 04:21:38;;;;;;;6.37;1.73;;;;;;;8.33;72.78;99786.66;5027461;28;20206;-63
2023/10/15 04:24:07;;;;;;;3.93;1.60;;;;;;;8.34;73.01;99786.63;5027297;28;20289;-61
2023/10/15 04:26:40;;;;;;;3.13;1.70;;;;;;;8.28;73.46;99801.22;5029112;28;20673;-61
2023/10/15 04:29:17;;;;;;;3.70;1.60;;;;;;;8.22;73.02;99800.41;5030017;28;20202;-62
2023/10/15 04:31:47;;;;;;;6.00;1.83;;;;;;;8.21;72.83;99798.69;5030143;28;20201;-61
2023/10/15 04:34:18;;;;;;;4.50;1.40;;;;;;;8.18;73.26;99803.84;5025073;28;20202;-63
2023/10/15 04:36:47;;;;;;;6.00;1.80;;;;;;;8.17;73.28;99793.56;5031477;28;20285;-66
2023/10/15 04:39:16;;;;;;;5.60;1.50;;;;;;;8.17;73.13;99802.16;5032898;28;20734;-68
2023/10/15 04:41:55;;;;;;;4.63;1.30;;;;;;;8.17;72.96;99797.03;5027496;28;20207;-66
2023/10/15 04:44:31;;;;;;;3.00;1.23;;;;;;;8.16;73.49;99795.28;5030950;28;20276;-67
2023/10/15 04:47:05;;;;;;;3.07;1.43;;;;;;;8.12;72.95;99788.47;5037703;28;20224;-68
2023/10/15 04:49:33;;;;;;;5.10;1.93;;;;;;;8.10;73.38;99786.78;5029720;28;20209;-67
2023/10/15 04:52:01;;;;;;;3.07;1.67;;;;;;;8.07;73.10;99786.81;5026671;28;20341;-67
2023/10/15 04:54:29;;;;;;;4.87;1.50;;;;;;;7.99;73.77;99787.72;5030251;28;20658;-66
2023/10/15 04:56:57;;;;;;;3.27;1.97;;;;;;;8.02;74.45;99784.25;5022991;28;20235;-66
2023/10/15 04:59:26;;;;;;;5.33;1.50;;;;;;;8.04;73.66;99777.41;5028563;28;20206;-68
2023/10/15 05:01:54;;;;;;;4.70;1.50;;;;;;;8.09;73.60;99787.63;5026629;28;20203;-64
2023/10/15 05:04:22;;;;;;;4.63;1.40;;;;;;;8.05;73.89;99781.66;5024425;28;20202;-64
2023/10/15 05:06:50;;;;;;;6.00;1.50;;;;;;;8.01;74.44;99776.56;5030604;28;20218;-63
2023/10/15 05:09:22;;;;;;;4.17;1.90;;;;;;;8.00;74.66;99783.41;5033325;28;20211;-65
2023/10/15 05:11:50;;;;;;;5.07;1.50;;;;;;;7.99;74.08;99776.59;5032128;28;20632;-64
2023/10/15 05:14:18;;;;;;;6.03;2.20;;;;;;;7.97;74.02;99780.88;5032748;28;20203;-65
2023/10/15 05:16:49;;;;;;;3.80;1.50;;;;;;;7.99;74.01;99786.84;5032276;28;20217;-66
2023/10/15 05:19:17;;;;;;;7.00;2.07;;;;;;;7.98;74.79;99780.00;5027747;28;20746;-65
2023/10/15 05:21:46;;;;;;;7.60;1.97;;;;;;;7.98;73.91;99770.59;5030151;28;20230;-66
2023/10/15 05:24:18;;;;;;;8.70;2.47;;;;;;;8.05;74.03;99786.81;5033125;28;20198;-65
2023/10/15 05:26:47;;;;;;;4.17;1.40;;;;;;;8.08;73.81;99784.22;5025269;28;20223;-66
2023/10/15 05:29:16;;;;;;;3.50;1.47;;;;;;;8.08;73.47;99797.06;5032641;28;20662;-67
2023/10/15 05:31:44;;;;;;;4.97;1.90;;;;;;;8.01;73.29;99785.13;5029704;28;20212;-67
2023/10/15 05:34:15;;;;;;;2.93;1.47;;;;;;;8.01;73.98;99803.06;5027394;28;20198;-66
2023/10/15 05:36:46;;;;;;;5.80;1.90;;;;;;;8.04;74.30;99800.50;5028677;28;20214;-66
2023/10/15 05:39:16;;;;;;;5.07;1.47;;;;;;;8.02;73.51;99811.63;5021143;28;20199;-65
2023/10/15 05:41:44;;;;;;;4.20;1.33;;;;;;;7.97;74.86;99815.06;5032399;28;20298;-66
2023/10/15 05:44:12;;;;;;;8.13;1.83;;;;;;;8.00;74.79;99819.34;5033273;28;20260;-66
2023/10/15 05:46:40;;;;;;;4.30;1.73;;;;;;;7.97;74.50;99827.03;5028774;28;20700;-67
2023/10/15 05:49:08;;;;;;;4.93;1.87;;;;;;;8.05;74.21;99835.56;5034514;28;20281;-66
2023/10/15 05:51:37;;;;;;;4.77;1.50;;;;;;;8.05;74.71;99834.72;5026411;28;20211;-66
2023/10/15 05:54:06;;;;;;;3.23;1.33;;;;;;;8.04;74.07;99826.16;5028488;28;20206;-65
2023/10/15 05:56:34;;;;;;;4.67;1.67;;;;;;;8.03;74.49;99845.00;5028553;28;20618;-67
2023/10/15 05:59:02;;;;;;;3.67;1.53;;;;;;;8.01;74.51;99846.69;5034741;28;20207;-67
2023/10/15 06:01:31;;;;;;;5.73;1.17;;;;;;;8.02;74.27;99845.81;5032977;28;20202;-67
2023/10/15 06:03:59;;;;;;;6.43;1.57;;;;;;;8.05;75.14;99847.53;5032482;28;20561;-68
2023/10/15 06:06:28;;;;;;;3.83;1.40;;;;;;;8.06;74.58;99847.50;5030999;28;20294;-64
2023/10/15 06:08:59;;;;;;;4.00;1.57;;;;;;;8.12;74.14;99847.50;5031880;28;20207;-65
2023/10/15 06:11:27;;;;;;;7.73;1.07;;;;;;;8.14;74.17;99850.91;5028535;28;20207;-64
2023/10/15 06:13:56;;;;;;;6.23;2.00;;;;;;;8.23;74.32;99868.81;5027045;28;20626;-66
2023/10/15 06:16:24;;;;;;;5.33;1.73;;;;;;;8.28;73.87;99852.53;5032909;28;20195;-66
2023/10/15 06:18:52;;;;;;;5.77;1.60;;;;;;;8.38;73.38;99856.81;5032026;28;20206;-66
2023/10/15 06:21:20;;;;;;;5.10;1.50;;;;;;;8.51;72.85;99852.47;5030711;28;20994;-66
2023/10/15 06:23:48;;;;;;;5.10;1.77;;;;;;;8.67;72.25;99862.63;5028762;28;20285;-65
2023/10/15 06:26:17;;;;;;;3.07;1.30;;;;;;;8.85;71.70;99851.34;5029794;28;20733;-66
2023/10/15 06:28:45;;;;;;;4.20;1.77;;;;;;;9.00;70.45;99858.09;5032277;28;20215;-66
2023/10/15 06:31:13;;;;;;;4.70;1.70;;;;;;;9.15;69.88;99863.09;5030682;28;20226;-66
2023/10/15 06:33:42;;;;;;;5.80;1.90;;;;;;;9.30;69.12;99843.25;5029949;28;20203;-65
2023/10/15 06:36:10;;;;;;;6.20;2.00;;;;;;;9.37;68.72;99862.91;5032076;28;20240;-66
2023/10/15 06:38:37;;;;;;;5.00;1.67;;;;;;;9.44;68.77;99847.41;5031854;28;20206;-67
2023/10/15 06:41:09;;;;;;;4.80;1.83;;;;;;;9.47;68.33;99849.09;5029372;28;20214;-67
2023/10/15 06:43:39;;;;;;;4.87;1.63;;;;;;;9.51;67.99;99860.22;5034400;28;20199;-67
2023/10/15 06:46:07;;;;;;;3.67;1.50;;;;;;;9.59;68.33;99866.13;5029057;28;20219;-67
2023/10/15 06:48:37;;;;;;;4.77;1.50;;;;;;;9.56;67.46;99855.84;5029748;28;20206;-67
2023/10/15 06:51:06;;;;;;;4.43;1.80;;;;;;;9.73;68.06;99850.53;5031012;28;20191;-66
2023/10/15 06:53:34;;;;;;;5.97;1.47;;;;;;;9.85;66.95;99860.69;5028030;28;20718;-66
2023/10/15 06:56:06;;;;;;;4.70;1.63;;;;;;;9.90;66.40;99859.78;5035208;28;20542;-67
2023/10/15 06:58:35;;;;;;;6.07;1.87;;;;;;;9.94;65.98;99860.56;5035770;28;20311;-67
2023/10/15 07:01:07;;;;;;;4.27;1.23;;;;;;;9.81;65.63;99856.44;5031731;28;20206;-67
2023/10/15 07:03:35;;;;;;;5.30;1.70;;;;;;;9.71;66.17;99865.97;5028362;28;20295;-68
2023/10/15 07:06:03;;;;;;;6.87;1.73;;;;;;;9.62;66.70;99878.94;5026870;28;20230;-65
2023/10/15 07:08:31;;;;;;;8.30;1.73;;;;;;;9.46;67.28;99867.94;5035491;28;20562;-66
2023/10/15 07:11:00;;;;;;;2.80;1.40;;;;;;;9.33;67.32;99872.38;5030978;28;20230;-66
2023/10/15 07:13:28;;;;;;;4.23;1.50;;;;;;;9.27;68.02;99885.28;5031860;28;20576;-67
2023/10/15 07:15:56;;;;;;;7.53;2.27;;;;;;;9.17;68.29;99887.09;5032040;28;20551;-67
2023/10/15 07:18:26;;;;;;;2.37;1.33;;;;;;;9.15;68.75;99890.53;5031293;28;20210;-67
2023/10/15 07:20:55;;;;;;;7.70;2.00;;;;;;;9.07;69.26;99880.31;5031970;28;20301;-67
2023/10/15 07:23:23;;;;;;;4.70;1.73;;;;;;;9.07;69.01;99882.88;5028742;28;20198;-70
2023/10/15 07:25:51;;;;;;;4.57;1.67;;;;;;;9.10;68.69;99879.44;5029141;28;20237;-66
2023/10/15 07:28:19;;;;;;;5.10;1.67;;;;;;;9.24;69.30;99889.59;5029502;28;20210;-67
2023/10/15 07:30:49;;;;;;;3.40;1.23;;;;;;;9.36;67.86;99884.34;5030175;28;20199;-64
2023/10/15 07:33:17;;;;;;;5.97;1.70;;;;;;;9.45;67.94;99886.81;5031048;28;20207;-65
2023/10/15 07:35:48;;;;;;;4.67;1.83;;;;;;;9.64;68.01;99885.75;5030769;28;20700;-67
2023/10/15 07:38:16;;;;;;;6.50;1.60;;;;;;;10.20;65.94;99895.44;5031241;28;20198;-68
2023/10/15 07:40:44;;;;;;;6.23;1.73;;;;;;;10.47;64.40;99886.53;5031697;28;20218;-67
2023/10/15 07:43:12;;;;;;;4.70;1.53;;;;;;;10.84;62.71;99884.28;5031062;28;20206;-65
2023/10/15 07:45:40;;;;;;;7.33;1.87;;;;;;;10.91;61.57;99888.47;5029031;28;20704;-65
2023/10/15 07:48:08;;;;;;;4.80;2.07;;;;;;;10.67;61.33;99883.69;5030772;28;20251;-66
2023/10/15 07:50:37;;;;;;;3.87;1.60;;;;;;;10.75;60.12;99887.00;5030769;28;20218;-66
2023/10/15 07:53:06;;;;;;;4.93;1.67;;;;;;;10.58;60.92;99897.56;5030527;28;20627;-66
2023/10/15 07:55:34;;;;;;;4.87;1.63;;;;;;;10.36;61.14;99881.53;5030243;28;20229;-66
2023/10/15 07:58:02;;;;;;;5.73;1.40;;;;;;;10.08;61.63;99884.41;5022753;28;20672;-68
2023/10/15 08:00:31;;;;;;;3.63;1.60;;;;;;;9.86;62.84;99888.13;5030833;28;20666;-68
2023/10/15 08:03:00;;;;;;;4.93;1.20;;;;;;;9.76;62.15;99881.38;5028606;28;20218;-66
2023/10/15 08:05:31;;;;;;;6.03;1.97;;;;;;;9.74;62.28;99888.25;5038716;28;20228;-66
2023/10/15 08:08:02;;;;;;;3.43;1.47;;;;;;;9.79;61.95;99892.47;5029803;28;20220;-62
2023/10/15 08:10:36;;;;;;;4.63;1.60;;;;;;;9.89;61.92;99895.81;5030080;28;20213;-60
2023/10/15 08:13:06;;;;;;;4.60;1.60;;;;;;;10.08;61.26;99892.13;5029126;28;20205;-62
2023/10/15 08:15:35;;;;;;;4.03;1.50;;;;;;;10.23;60.09;99885.94;5031129;28;20620;-62
2023/10/15 08:18:03;;;;;;;7.10;1.80;;;;;;;10.33;60.12;99891.88;5033094;28;20206;-61
2023/10/15 08:20:32;;;;;;;4.37;1.20;;;;;;;10.43;59.94;99885.75;5027341;28;20202;-63
2023/10/15 08:23:01;;;;;;;4.63;1.50;;;;;;;10.62;59.66;99876.88;5029655;28;20233;-61
2023/10/15 08:25:31;;;;;;;2.40;1.27;;;;;;;10.58;57.97;99884.66;5030809;28;20662;-62
2023/10/15 08:28:03;;;;;;;3.80;1.40;;;;;;;10.40;58.27;99896.06;5031032;28;20681;-61
2023/10/15 08:30:33;;;;;;;2.87;1.20;;;;;;;10.40;57.62;99904.66;5062183;28;20203;-62
2023/10/15 08:33:01;;;;;;;7.87;1.73;;;;;;;10.29;58.10;99895.38;5030322;28;20591;-60
2023/10/15 08:35:29;;;;;;;5.20;1.70;;;;;;;10.31;58.43;99901.31;5030030;28;20211;-60
2023/10/15 08:38:00;;;;;;;2.93;1.30;;;;;;;10.31;57.51;99897.06;5030697;28;20207;-61
2023/10/15 08:40:30;;;;;;;2.77;0.90;;;;;;;10.19;56.38;99898.88;5029089;28;20214;-62
2023/10/15 08:43:06;;;;;;;4.13;1.53;;;;;;;10.20;57.20;99898.00;5033016;28;20684;-63
2023/10/15 08:45:35;;;;;;;2.97;1.30;;;;;;;10.27;56.81;99899.66;5031377;28;20280;-62
2023/10/15 08:48:05;;;;;;;3.47;1.30;;;;;;;10.40;57.40;99885.78;5033500;28;20719;-61
2023/10/15 08:50:37;;;;;;;6.27;1.50;;;;;;;10.61;57.63;99894.94;5033915;28;20272;-63
2023/10/15 08:53:06;;;;;;;6.17;1.73;;;;;;;10.83;56.79;99896.31;5033400;28;20294;-64
2023/10/15 08:55:38;;;;;;;8.70;1.73;;;;;;;10.98;56.00;99892.66;5033714;28;20206;-62
2023/10/15 08:58:10;;;;;;;4.47;1.23;;;;;;;11.12;55.63;99895.88;5031208;28;20323;-62
2023/10/15 09:00:40;;;;;;;7.17;1.60;;;;;;;11.13;55.52;99887.25;5031182;28;20211;-61
2023/10/15 09:03:13;;;;;;;3.20;1.47;;;;;;;11.04;54.85;99904.59;5031158;28;20207;-61
2023/10/15 09:05:44;;;;;;;2.23;1.13;;;;;;;10.85;55.91;99894.56;5033260;28;20210;-64
2023/10/15 09:08:14;;;;;;;3.47;1.90;;;;;;;10.72;56.49;99912.81;5028243;28;20215;-62
2023/10/15 09:10:44;;;;;;;5.50;1.63;;;;;;;10.54;56.54;99903.63;5028562;28;20673;-60
2023/10/15 09:13:19;;;;;;;5.13;1.33;;;;;;;10.35;57.17;99903.03;5027367;28;20202;-64
2023/10/15 09:15:49;;;;;;;3.77;1.23;;;;;;;10.21;56.48;99908.31;5028496;28;20680;-65
2023/10/15 09:18:17;;;;;;;2.97;1.03;;;;;;;10.12;57.64;99911.81;5030927;28;20366;-60
2023/10/15 09:20:50;;;;;;;3.70;1.50;;;;;;;10.00;58.16;99911.97;5033866;28;20207;-61
2023/10/15 09:23:21;;;;;;;4.77;1.50;;;;;;;10.02;58.36;99907.69;5031096;28;20209;-63
2023/10/15 09:25:53;;;;;;;3.83;1.47;;;;;;;10.01;58.15;99913.66;5037323;28;20206;-61
2023/10/15 09:28:27;;;;;;;6.37;1.40;;;;;;;10.02;57.81;99915.41;5035376;28;20222;-63
2023/10/15 09:31:03;;;;;;;4.63;1.50;;;;;;;9.83;58.48;99919.03;5032046;28;20244;-65
2023/10/15 09:33:35;;;;;;;8.13;1.40;;;;;;;9.85;58.68;99912.16;5028450;28;20209;-61
2023/10/15 09:36:06;;;;;;;4.23;1.60;;;;;;;9.83;58.43;99911.31;5034657;28;20227;-62
2023/10/15 09:38:36;;;;;;;5.07;1.33;;;;;;;9.89;58.41;99918.97;5032478;28;20230;-61
2023/10/15 09:41:06;;;;;;;5.03;1.53;;;;;;;9.99;58.79;99925.72;5034662;28;20288;-62
2023/10/15 09:43:36;;;;;;;3.77;1.30;;;;;;;10.09;58.05;99914.47;5031580;28;20199;-63
2023/10/15 09:46:06;;;;;;;3.40;1.30;;;;;;;10.10;57.96;99913.56;5030193;28;20690;-66
2023/10/15 09:48:37;;;;;;;2.27;1.27;;;;;;;10.24;58.16;99917.72;5031842;28;20212;-65
2023/10/15 09:51:07;;;;;;;3.57;1.43;;;;;;;10.03;57.92;99911.94;5026474;28;20198;-66
2023/10/15 09:53:36;;;;;;;3.17;1.30;;;;;;;9.95;57.87;99924.06;5036976;28;20211;-64
2023/10/15 09:56:08;;;;;;;3.13;1.20;;;;;;;9.91;58.08;99914.66;5026966;28;20211;-64
2023/10/15 09:58:38;;;;;;;2.93;1.50;;;;;;;9.91;58.48;99920.66;5031461;28;20677;-65
2023/10/15 10:01:09;;;;;;;4.23;1.30;;;;;;;9.92;59.29;99926.66;5025364;28;20203;-65
2023/10/15 10:04:23;;;;;;;4.50;1.37;;;;;;;9.93;58.66;99920.63;5032736;28;20273;-61
2023/10/15 10:07:06;;;;;;;5.90;1.33;;;;;;;9.86;59.33;99919.00;5020335;28;20215;-60
2023/10/15 10:09:58;;;;;;;3.53;1.60;;;;;;;9.89;58.86;99906.94;5028555;28;20646;-62
2023/10/15 10:12:42;;;;;;;6.47;1.60;;;;;;;9.98;59.27;99907.72;5026566;28;20290;-63
2023/10/15 10:15:28;;;;;;;6.23;1.53;;;;;;;9.97;59.27;99922.31;5029157;28;20221;-62
2023/10/15 10:17:56;;;;;;;3.90;1.83;;;;;;;9.90;59.19;99910.38;5031976;28;20210;-64
2023/10/15 10:20:32;;;;;;;7.40;1.70;;;;;;;9.87;59.31;99907.84;5029831;28;20207;-63
2023/10/15 10:23:02;;;;;;;3.27;1.50;;;;;;;9.84;59.67;99915.59;5028500;28;20600;-64
2023/10/15 10:25:32;;;;;;;4.00;1.43;;;;;;;9.83;59.58;99914.75;5026496;28;20207;-63
2023/10/15 10:28:07;;;;;;;3.10;1.50;;;;;;;9.85;59.50;99920.72;5034350;28;20593;-64
2023/10/15 10:30:54;;;;;;;5.60;1.63;;;;;;;9.80;59.00;99890.78;5026978;28;20217;-63
2023/10/15 10:33:55;;;;;;;3.80;1.67;;;;;;;9.88;60.76;99912.13;5024454;28;20233;-62
2023/10/15 10:36:27;;;;;;;4.73;1.50;;;;;;;10.05;59.67;99899.03;4999534;28;20210;-64
2023/10/15 10:39:07;;;;;;;3.63;1.40;;;;;;;10.08;58.81;99901.59;5007849;28;20206;-63
2023/10/15 10:41:38;;;;;;;2.83;1.47;;;;;;;9.99;59.70;99899.97;5020504;28;20226;-63
2023/10/15 10:44:07;;;;;;;2.67;1.13;;;;;;;9.86;59.13;99919.00;5024762;28;20289;-65
2023/10/15 10:46:56;;;;;;;3.27;1.40;;;;;;;9.83;58.78;99919.03;5028094;28;20199;-62
2023/10/15 10:49:30;;;;;;;5.03;1.73;;;;;;;9.90;58.73;99907.78;5024782;28;20214;-64
2023/10/15 10:52:05;;;;;;;3.87;1.73;;;;;;;9.93;59.25;99900.88;5028495;28;20207;-62
2023/10/15 10:54:36;;;;;;;4.83;1.50;;;;;;;10.07;59.03;99905.88;5025402;28;20198;-64
2023/10/15 10:57:08;;;;;;;5.33;1.40;;;;;;;10.01;57.65;99910.25;5027659;28;20262;-64
2023/10/15 10:59:39;;;;;;;3.77;1.87;;;;;;;9.91;58.31;99912.09;5029560;28;20202;-64
2023/10/15 11:02:13;;;;;;;3.70;1.80;;;;;;;9.85;59.00;99907.00;5028367;28;20622;-63
2023/10/15 11:04:42;;;;;;;5.93;1.77;;;;;;;9.86;59.60;99906.13;5030236;28;20667;-61
2023/10/15 11:07:13;;;;;;;4.83;1.50;;;;;;;9.86;59.00;99903.56;5025230;28;20723;-60
2023/10/15 11:09:41;;;;;;;3.23;1.50;;;;;;;9.73;59.70;99902.84;5030925;28;20218;-60
2023/10/15 11:12:10;;;;;;;3.43;2.00;;;;;;;9.72;60.05;99911.44;5031197;28;20198;-61
2023/10/15 11:14:39;;;;;;;5.47;2.03;;;;;;;9.70;60.52;99908.00;5031627;28;20650;-63
2023/10/15 11:17:09;;;;;;;5.20;1.53;;;;;;;9.73;60.73;99907.16;5031107;28;20324;-62
2023/10/15 11:19:39;;;;;;;3.13;1.50;;;;;;;9.75;60.37;99910.53;5031638;28;20226;-62
2023/10/15 11:22:09;;;;;;;3.37;1.50;;;;;;;9.75;59.85;99895.94;5027326;28;20633;-60
2023/10/15 11:24:38;;;;;;;3.03;1.93;;;;;;;9.72;60.42;99896.00;5033025;28;20202;-64
2023/10/15 11:27:11;;;;;;;4.27;1.50;;;;;;;9.72;60.06;99902.84;5031699;28;20576;-64
2023/10/15 11:29:41;;;;;;;2.90;1.53;;;;;;;9.59;59.97;99895.25;5032685;28;22385;-63
2023/10/15 11:32:11;;;;;;;1.60;1.50;;;;;;;9.67;60.90;99893.44;5031018;28;20264;-62
2023/10/15 11:34:43;;;;;;;4.03;1.60;;;;;;;9.79;60.00;99896.75;5031757;28;20568;-62
2023/10/15 11:37:16;;;;;;;4.07;1.73;;;;;;;9.86;59.63;99893.25;5031905;28;20210;-61
2023/10/15 11:39:47;;;;;;;2.90;1.67;;;;;;;9.92;59.03;99898.34;5028636;28;20249;-62
2023/10/15 11:42:18;;;;;;;4.70;1.90;;;;;;;9.93;58.99;99890.59;5030585;28;20285;-61
2023/10/15 11:44:55;;;;;;;4.77;1.93;;;;;;;9.90;58.92;99900.06;5031636;28;20657;-63
2023/10/15 11:47:27;;;;;;;4.77;1.80;;;;;;;9.88;59.41;99900.09;5031344;28;20769;-61
2023/10/15 11:49:55;;;;;;;4.80;1.93;;;;;;;9.92;59.58;99898.34;5030933;28;20266;-62
2023/10/15 11:52:23;;;;;;;6.07;1.40;;;;;;;9.89;58.75;99896.66;5025236;28;20207;-61
2023/10/15 11:54:51;;;;;;;2.13;1.30;;;;;;;9.86;58.75;99898.41;5030870;28;20217;-63
2023/10/15 11:57:23;;;;;;;3.70;1.47;;;;;;;9.95;58.73;99900.03;5030981;28;20698;-63
2023/10/15 11:59:52;;;;;;;5.57;1.40;;;;;;;9.90;57.92;99900.94;5031491;28;20664;-61
2023/10/15 12:02:27;;;;;;;1.97;0.97;;;;;;;9.88;57.46;99901.81;5032970;28;20198;-62